createdAt,value
2022-11-27T00:01:36.642Z,26.92
2022-11-27T00:04:10.959Z,28.30
2022-11-27T00:06:42.828Z,24.23
2022-11-27T00:09:16.240Z,28.38
2022-11-27T00:11:48.027Z,27.05
2022-11-27T00:14:21.603Z,27.30
2022-11-27T00:16:53.292Z,25.27
2022-11-27T00:19:25.002Z,26.90
2022-11-27T00:21:56.639Z,25.95
2022-11-27T00:24:28.473Z,32.42
2022-11-27T00:27:00.159Z,24.17
2022-11-27T00:29:34.382Z,26.60
2022-11-27T00:32:08.176Z,26.40
2022-11-27T00:34:40.387Z,25.37
2022-11-27T00:37:14.869Z,25.10
2022-11-27T00:39:47.519Z,29.60
2022-11-27T00:42:19.185Z,29.25
2022-11-27T00:44:51.384Z,27.73
2022-11-27T00:47:23.017Z,26.83
2022-11-27T00:49:54.628Z,28.60
2022-11-27T00:52:26.301Z,28.10
2022-11-27T00:55:00.819Z,28.77
2022-11-27T00:57:32.607Z,25.90
2022-11-27T01:00:06.852Z,34.38
2022-11-27T01:02:38.631Z,27.95
2022-11-27T01:05:10.753Z,30.73
2022-11-27T01:07:42.410Z,23.75
2022-11-27T01:10:14.041Z,27.75
2022-11-27T01:12:50.170Z,29.02
2022-11-27T01:15:21.943Z,30.00
2022-11-27T01:17:53.726Z,26.25
2022-11-27T01:20:25.281Z,25.33
2022-11-27T01:22:56.953Z,29.83
2022-11-27T01:25:28.566Z,25.48
2022-11-27T01:28:00.343Z,26.38
2022-11-27T01:30:31.940Z,30.25
2022-11-27T01:33:03.709Z,24.38
2022-11-27T01:35:35.351Z,26.88
2022-11-27T01:38:07.238Z,26.00
2022-11-27T01:40:38.852Z,26.85
2022-11-27T01:43:15.462Z,26.80
2022-11-27T01:45:47.084Z,24.52
2022-11-27T01:48:18.880Z,25.00
2022-11-27T01:50:53.221Z,25.35
2022-11-27T01:53:25.412Z,29.27
2022-11-27T01:56:00.620Z,24.20
2022-11-27T01:58:33.814Z,26.90
2022-11-27T02:01:05.982Z,27.45
2022-11-27T02:03:39.534Z,25.05
2022-11-27T02:06:14.169Z,26.17
2022-11-27T02:08:47.959Z,29.45
2022-11-27T02:11:35.591Z,28.65
2022-11-27T02:14:31.723Z,27.95
2022-11-27T02:17:26.096Z,30.25
2022-11-27T02:20:27.343Z,29.58
2022-11-27T02:23:28.235Z,29.23
2022-11-27T02:26:26.433Z,28.70
2022-11-27T02:29:02.791Z,28.27
2022-11-27T02:31:45.078Z,30.65
2022-11-27T02:34:28.796Z,30.65
2022-11-27T02:37:27.394Z,31.92
2022-11-27T02:40:08.038Z,28.15
2022-11-27T02:43:01.917Z,27.42
2022-11-27T02:45:41.336Z,31.58
2022-11-27T02:48:15.637Z,29.42
2022-11-27T02:50:50.298Z,29.95
2022-11-27T02:53:49.575Z,31.35
2022-11-27T02:56:26.212Z,30.08
2022-11-27T02:59:02.975Z,25.13
2022-11-27T03:01:41.147Z,28.48
2022-11-27T03:04:19.105Z,28.50
2022-11-27T03:06:58.039Z,30.40
2022-11-27T03:09:35.564Z,30.65
2022-11-27T03:12:09.854Z,31.40
2022-11-27T03:14:42.929Z,25.92
2022-11-27T03:17:35.963Z,29.13
2022-11-27T03:20:18.319Z,26.58
2022-11-27T03:22:50.067Z,27.25
2022-11-27T03:25:22.864Z,30.27
2022-11-27T03:28:03.545Z,23.85
2022-11-27T03:30:35.315Z,27.05
2022-11-27T03:33:07.439Z,26.98
2022-11-27T03:35:39.133Z,26.52
2022-11-27T03:38:12.402Z,25.65
2022-11-27T03:41:07.428Z,29.77
2022-11-27T03:43:55.885Z,24.38
2022-11-27T03:46:44.820Z,27.95
2022-11-27T03:49:22.340Z,28.10
2022-11-27T03:52:23.544Z,23.90
2022-11-27T03:55:18.839Z,25.58
2022-11-27T03:58:08.936Z,28.58
2022-11-27T04:00:43.906Z,30.27
2022-11-27T04:03:24.925Z,28.23
2022-11-27T04:05:57.703Z,27.25
2022-11-27T04:08:30.600Z,25.05
2022-11-27T04:11:04.469Z,25.08
2022-11-27T04:13:37.082Z,23.43
2022-11-27T04:16:09.294Z,24.65
2022-11-27T04:18:41.005Z,30.35
2022-11-27T04:21:12.852Z,28.42
2022-11-27T04:23:45.200Z,26.52
2022-11-27T04:26:16.935Z,26.33
2022-11-27T04:28:51.471Z,26.80
2022-11-27T04:31:25.956Z,28.67
2022-11-27T04:34:00.878Z,26.83
2022-11-27T04:36:37.591Z,32.83
2022-11-27T04:39:10.949Z,25.88
2022-11-27T04:41:42.817Z,29.00
2022-11-27T04:44:14.955Z,23.73
2022-11-27T04:46:46.743Z,29.30
2022-11-27T04:49:19.027Z,27.45
2022-11-27T04:51:50.871Z,26.45
2022-11-27T04:54:26.143Z,25.98
2022-11-27T04:56:57.774Z,25.95
2022-11-27T04:59:29.538Z,28.70
2022-11-27T05:02:01.141Z,40.35
2022-11-27T05:04:33.018Z,36.70
2022-11-27T05:07:04.568Z,28.02
2022-11-27T05:09:36.214Z,25.27
2022-11-27T05:12:08.162Z,36.47
2022-11-27T05:14:42.907Z,26.08
2022-11-27T05:17:16.110Z,37.58
2022-11-27T05:19:48.029Z,28.90
2022-11-27T05:22:19.621Z,51.85
2022-11-27T05:24:51.217Z,78.72
2022-11-27T05:27:22.889Z,28.33
2022-11-27T05:29:54.533Z,65.22
2022-11-27T05:32:26.216Z,41.90
2022-11-27T05:34:57.819Z,36.72
2022-11-27T05:37:29.733Z,48.90
2022-11-27T05:40:01.688Z,44.88
2022-11-27T05:42:33.400Z,51.08
2022-11-27T05:45:05.564Z,30.40
2022-11-27T05:47:37.239Z,49.58
2022-11-27T05:50:09.506Z,36.58
2022-11-27T05:52:41.227Z,33.15
2022-11-27T05:55:12.933Z,32.50
2022-11-27T05:57:44.649Z,27.70
2022-11-27T06:00:16.747Z,26.60
2022-11-27T06:02:48.469Z,26.30
2022-11-27T06:05:20.251Z,28.85
2022-11-27T06:07:51.834Z,24.65
2022-11-27T06:10:23.553Z,24.92
2022-11-27T06:12:55.578Z,25.23
2022-11-27T06:15:27.201Z,29.17
2022-11-27T06:17:58.791Z,30.33
2022-11-27T06:20:30.535Z,25.60
2022-11-27T06:23:02.145Z,22.83
2022-11-27T06:25:33.723Z,24.40
2022-11-27T06:28:05.302Z,26.00
2022-11-27T06:30:38.171Z,22.75
2022-11-27T06:33:09.710Z,25.95
2022-11-27T06:35:41.288Z,24.27
2022-11-27T06:38:12.899Z,26.92
2022-11-27T06:40:44.528Z,42.08
2022-11-27T06:43:18.841Z,30.05
2022-11-27T06:45:58.765Z,38.25
2022-11-27T06:48:30.790Z,26.63
2022-11-27T06:51:05.409Z,26.92
2022-11-27T06:53:38.160Z,30.52
2022-11-27T06:56:13.055Z,54.58
2022-11-27T07:01:17.632Z,36.47
2022-11-27T07:03:49.389Z,63.28
2022-11-27T07:06:23.870Z,80.20
2022-11-27T07:08:55.768Z,43.25
2022-11-27T07:11:29.829Z,33.33
2022-11-27T07:14:04.441Z,86.20
2022-11-27T07:16:36.743Z,40.80
2022-11-27T07:19:08.583Z,27.90
2022-11-27T07:21:40.564Z,26.45
2022-11-27T07:24:12.177Z,41.35
2022-11-27T07:26:45.784Z,32.47
2022-11-27T07:29:17.420Z,42.85
2022-11-27T07:31:51.268Z,54.33
2022-11-27T07:34:23.544Z,69.82
2022-11-27T07:36:55.124Z,25.17
2022-11-27T07:39:46.653Z,35.83
2022-11-27T07:45:10.863Z,22.83
2022-11-27T07:47:42.758Z,43.22
2022-11-27T07:50:17.181Z,24.88
2022-11-27T07:52:48.955Z,23.08
2022-11-27T07:55:20.573Z,28.35
2022-11-27T07:57:52.274Z,28.63
2022-11-27T08:00:25.164Z,32.60
2022-11-27T08:02:57.912Z,25.42
2022-11-27T08:05:29.890Z,28.08
2022-11-27T08:08:04.285Z,30.20
2022-11-27T08:10:40.429Z,23.10
2022-11-27T08:13:12.079Z,32.42
2022-11-27T08:15:43.672Z,23.17
2022-11-27T08:18:15.300Z,17.67
2022-11-27T08:20:47.045Z,23.73
2022-11-27T08:23:18.709Z,25.90
2022-11-27T08:25:50.315Z,25.60
2022-11-27T08:28:24.084Z,24.48
2022-11-27T08:30:59.664Z,29.88
2022-11-27T08:33:32.114Z,35.35
2022-11-27T08:36:04.956Z,33.50
2022-11-27T08:38:36.605Z,26.58
2022-11-27T08:41:09.343Z,22.50
2022-11-27T08:43:42.429Z,27.35
2022-11-27T08:46:14.188Z,23.08
2022-11-27T08:48:45.881Z,22.70
2022-11-27T08:51:17.569Z,21.92
2022-11-27T08:53:49.208Z,20.17
2022-11-27T08:56:23.474Z,25.15
2022-11-27T08:58:55.193Z,24.00
2022-11-27T09:01:31.328Z,23.80
2022-11-27T09:04:03.300Z,24.30
2022-11-27T09:06:34.987Z,22.48
2022-11-27T09:09:06.756Z,24.48
2022-11-27T09:11:38.539Z,38.63
2022-11-27T09:14:11.765Z,26.25
2022-11-27T09:16:44.700Z,22.77
2022-11-27T09:19:17.176Z,22.98
2022-11-27T09:21:50.865Z,24.45
2022-11-27T09:24:22.544Z,24.15
2022-11-27T09:26:54.372Z,23.25
2022-11-27T09:29:26.036Z,23.60
2022-11-27T09:31:57.805Z,25.00
2022-11-27T09:34:32.290Z,23.63
2022-11-27T09:37:09.054Z,24.85
2022-11-27T09:39:40.649Z,25.80
2022-11-27T09:42:31.104Z,29.25
2022-11-27T09:45:04.496Z,25.50
2022-11-27T09:47:42.504Z,23.58
2022-11-27T09:50:24.298Z,24.35
2022-11-27T09:52:58.718Z,26.35
2022-11-27T09:55:44.474Z,26.02
2022-11-27T09:58:39.051Z,22.23
2022-11-27T10:01:17.294Z,23.63
2022-11-27T10:03:49.159Z,25.92
2022-11-27T10:06:56.721Z,26.27
2022-11-27T10:10:16.104Z,26.50
2022-11-27T10:13:10.330Z,28.10
2022-11-27T10:15:50.924Z,28.35
2022-11-27T10:18:40.538Z,25.13
2022-11-27T10:21:42.626Z,30.98
2022-11-27T10:24:39.155Z,28.55
2022-11-27T10:27:23.699Z,24.02
2022-11-27T10:29:56.368Z,25.83
2022-11-27T10:32:54.510Z,26.00
2022-11-27T10:35:28.490Z,29.90
2022-11-27T10:38:18.254Z,27.27
2022-11-27T10:41:09.775Z,23.90
2022-11-27T10:43:45.078Z,25.35
2022-11-27T10:46:30.314Z,25.17
2022-11-27T10:51:41.113Z,21.85
2022-11-27T10:54:32.419Z,23.40
2022-11-27T10:57:31.797Z,22.77
2022-11-27T11:00:09.620Z,22.90
2022-11-27T11:02:42.282Z,20.40
2022-11-27T11:05:41.043Z,22.35
2022-11-27T11:08:18.939Z,19.90
2022-11-27T11:10:54.378Z,21.67
2022-11-27T11:13:28.496Z,19.98
2022-11-27T11:16:05.175Z,22.10
2022-11-27T11:18:51.761Z,23.52
2022-11-27T11:21:26.433Z,23.02
2022-11-27T11:24:03.724Z,24.58
2022-11-27T11:26:49.125Z,21.55
2022-11-27T11:29:42.387Z,24.85
2022-11-27T11:32:20.129Z,21.95
2022-11-27T11:35:00.659Z,25.00
2022-11-27T11:37:41.179Z,23.35
2022-11-27T11:40:21.854Z,22.30
2022-11-27T11:42:59.264Z,27.83
2022-11-27T11:45:33.317Z,24.65
2022-11-27T11:48:24.041Z,27.48
2022-11-27T11:51:24.978Z,25.05
2022-11-27T11:54:30.818Z,25.48
2022-11-27T11:57:08.518Z,25.27
2022-11-27T11:59:52.334Z,27.08
2022-11-27T12:02:39.213Z,25.17
2022-11-27T12:05:17.523Z,26.77
2022-11-27T12:07:55.423Z,28.13
2022-11-27T12:10:49.045Z,28.38
2022-11-27T12:14:01.859Z,25.90
2022-11-27T12:16:46.106Z,26.15
2022-11-27T12:20:06.633Z,26.85
2022-11-27T12:22:41.518Z,25.95
2022-11-27T12:25:34.177Z,26.73
2022-11-27T12:28:38.103Z,23.95
2022-11-27T12:31:12.668Z,24.65
2022-11-27T12:34:06.180Z,24.02
2022-11-27T12:36:49.972Z,24.05
2022-11-27T12:39:34.977Z,25.83
2022-11-27T12:42:22.296Z,25.45
2022-11-27T12:45:15.416Z,23.55
2022-11-27T12:47:58.541Z,23.38
2022-11-27T12:50:45.412Z,25.38
2022-11-27T12:53:44.218Z,26.20
2022-11-27T12:56:25.185Z,27.38
2022-11-27T12:59:04.669Z,27.10
2022-11-27T13:01:54.976Z,29.08
2022-11-27T13:04:37.215Z,27.75
2022-11-27T13:07:50.195Z,33.28
2022-11-27T13:10:42.483Z,28.83
2022-11-27T13:13:22.256Z,25.10
2022-11-27T13:16:00.978Z,28.23
2022-11-27T13:18:38.349Z,24.00
2022-11-27T13:21:14.995Z,24.45
2022-11-27T13:23:46.663Z,25.88
2022-11-27T13:26:28.502Z,25.30
2022-11-27T13:29:04.164Z,22.83
2022-11-27T13:31:39.235Z,29.25
2022-11-27T13:34:21.294Z,36.38
2022-11-27T13:37:05.825Z,27.20
2022-11-27T13:39:40.776Z,26.65
2022-11-27T13:42:12.295Z,30.48
2022-11-27T13:44:52.761Z,26.38
2022-11-27T13:47:27.411Z,24.02
2022-11-27T13:50:03.012Z,29.20
2022-11-27T13:52:35.394Z,26.17
2022-11-27T13:55:09.953Z,22.48
2022-11-27T13:57:52.422Z,24.55
2022-11-27T14:00:44.705Z,24.23
2022-11-27T14:03:30.216Z,25.15
2022-11-27T14:06:01.867Z,25.92
2022-11-27T14:08:35.261Z,29.25
2022-11-27T14:11:15.015Z,29.23
2022-11-27T14:13:50.269Z,30.17
2022-11-27T14:16:36.987Z,27.40
2022-11-27T14:19:33.616Z,30.30
2022-11-27T14:22:30.568Z,48.10
2022-11-27T14:25:03.128Z,30.88
2022-11-27T14:27:36.232Z,27.80
2022-11-27T14:30:35.803Z,28.90
2022-11-27T14:33:18.546Z,32.55
2022-11-27T14:35:52.772Z,28.05
2022-11-27T14:38:26.225Z,31.83
2022-11-27T14:41:22.308Z,28.40
2022-11-27T14:44:05.640Z,29.08
2022-11-27T14:46:37.774Z,36.55
2022-11-27T14:49:18.337Z,31.17
2022-11-27T14:51:51.374Z,34.65
2022-11-27T14:54:28.268Z,30.80
2022-11-27T14:57:00.315Z,32.22
2022-11-27T14:59:32.251Z,33.10
2022-11-27T15:02:06.848Z,34.30
2022-11-27T15:04:41.178Z,30.67
2022-11-27T15:07:22.712Z,28.98
2022-11-27T15:09:56.682Z,35.55
2022-11-27T15:12:33.550Z,31.25
2022-11-27T15:15:09.823Z,33.70
2022-11-27T15:17:46.431Z,32.08
2022-11-27T15:20:34.670Z,34.28
2022-11-27T15:23:19.334Z,29.27
2022-11-27T15:26:09.588Z,37.85
2022-11-27T15:28:47.276Z,39.58
2022-11-27T15:31:22.759Z,35.22
2022-11-27T15:34:06.151Z,35.03
2022-11-27T15:36:39.944Z,32.50
2022-11-27T15:39:26.975Z,33.10
2022-11-27T15:42:03.471Z,32.28
2022-11-27T15:44:35.178Z,34.50
2022-11-27T15:47:07.406Z,37.90
2022-11-27T15:49:39.100Z,31.88
2022-11-27T15:52:10.727Z,35.72
2022-11-27T15:54:42.502Z,37.33
2022-11-27T15:57:14.311Z,32.20
2022-11-27T15:59:46.051Z,35.58
2022-11-27T16:02:18.539Z,33.60
2022-11-27T16:04:51.074Z,31.92
2022-11-27T16:07:22.860Z,36.75
2022-11-27T16:09:57.281Z,37.10
2022-11-27T16:12:28.921Z,32.78
2022-11-27T16:15:00.626Z,37.40
2022-11-27T16:17:32.242Z,37.00
2022-11-27T16:20:04.403Z,39.58
2022-11-27T16:22:36.059Z,41.67
2022-11-27T16:25:08.015Z,41.30
2022-11-27T16:27:39.734Z,42.80
2022-11-27T16:30:12.269Z,43.55
2022-11-27T16:32:43.984Z,43.28
2022-11-27T16:35:18.970Z,44.78
2022-11-27T16:37:50.650Z,40.40
2022-11-27T16:40:27.404Z,47.90
2022-11-27T16:42:59.269Z,44.00
2022-11-27T16:45:38.342Z,46.83
2022-11-27T16:48:10.472Z,45.20
2022-11-27T16:50:42.172Z,39.78
2022-11-27T16:53:14.411Z,38.65
2022-11-27T16:55:48.755Z,43.28
2022-11-27T16:58:22.764Z,41.17
2022-11-27T17:00:54.523Z,40.83
2022-11-27T17:03:26.147Z,40.17
2022-11-27T17:05:58.686Z,47.28
2022-11-27T17:08:30.351Z,45.28
2022-11-27T17:11:13.723Z,48.05
2022-11-27T17:13:45.652Z,47.83
2022-11-27T17:16:19.298Z,54.50
2022-11-27T17:18:51.266Z,46.73
2022-11-27T17:21:31.211Z,43.08
2022-11-27T17:24:16.087Z,54.70
2022-11-27T17:26:53.427Z,47.33
2022-11-27T17:29:32.165Z,56.10
2022-11-27T17:32:09.664Z,66.70
2022-11-27T17:34:41.432Z,55.88
2022-11-27T17:37:13.990Z,65.85
2022-11-27T17:39:46.020Z,45.55
2022-11-27T17:42:22.454Z,44.80
2022-11-27T17:44:56.218Z,57.35
2022-11-27T17:47:27.904Z,43.25
2022-11-27T17:50:05.332Z,43.30
2022-11-27T17:52:37.051Z,52.22
2022-11-27T17:55:08.891Z,68.20
2022-11-27T17:57:40.573Z,46.22
2022-11-27T18:00:18.794Z,58.05
2022-11-27T18:02:50.581Z,76.18
2022-11-27T18:05:22.695Z,94.88
2022-11-27T18:07:54.770Z,129.38
2022-11-27T18:10:29.003Z,46.47
2022-11-27T18:13:04.310Z,76.22
2022-11-27T18:15:36.359Z,55.33
2022-11-27T18:18:10.442Z,60.10
2022-11-27T18:20:42.336Z,45.70
2022-11-27T18:23:16.240Z,62.50
2022-11-27T18:25:49.200Z,71.33
2022-11-27T18:28:20.961Z,79.57
2022-11-27T18:30:52.540Z,96.18
2022-11-27T18:33:24.133Z,105.57
2022-11-27T18:35:55.691Z,80.97
2022-11-27T18:38:29.353Z,61.92
2022-11-27T18:41:06.740Z,97.88
2022-11-27T18:43:39.864Z,69.43
2022-11-27T18:46:17.408Z,130.52
2022-11-27T18:48:50.393Z,80.80
2022-11-27T18:51:24.803Z,54.65
2022-11-27T18:53:56.761Z,131.15
2022-11-27T18:56:30.925Z,59.70
2022-11-27T19:01:47.261Z,60.85
2022-11-27T19:04:19.046Z,89.32
2022-11-27T19:06:51.025Z,165.30
2022-11-27T19:09:25.916Z,137.13
2022-11-27T19:11:58.334Z,117.63
2022-11-27T19:14:31.702Z,413.25
2022-11-27T19:17:05.314Z,188.32
2022-11-27T19:19:55.013Z,147.68
2022-11-27T19:22:27.023Z,110.70
2022-11-27T19:25:01.124Z,51.47
2022-11-27T19:27:35.121Z,74.82
2022-11-27T19:30:07.455Z,54.72
2022-11-27T19:32:43.597Z,45.65
2022-11-27T19:35:15.294Z,53.42
2022-11-27T19:37:50.066Z,37.00
2022-11-27T19:40:25.360Z,80.60
2022-11-27T19:43:01.015Z,298.65
2022-11-27T19:45:35.736Z,167.38
2022-11-27T19:48:07.783Z,84.10
2022-11-27T19:50:40.194Z,71.72
2022-11-27T19:53:12.025Z,123.35
2022-11-27T19:55:47.659Z,164.35
2022-11-27T19:58:19.537Z,90.32
2022-11-27T20:00:54.089Z,163.27
2022-11-27T20:03:25.801Z,149.18
2022-11-27T20:06:05.836Z,69.03
2022-11-27T20:08:37.914Z,55.92
2022-11-27T20:11:12.235Z,57.60
2022-11-27T20:13:46.651Z,53.95
2022-11-27T20:19:24.467Z,111.15
2022-11-27T20:21:56.151Z,87.90
2022-11-27T20:24:31.147Z,101.32
2022-11-27T20:27:17.922Z,102.95
2022-11-27T20:29:49.541Z,47.63
2022-11-27T20:32:22.333Z,96.28
2022-11-27T20:34:53.909Z,45.05
2022-11-27T20:37:25.632Z,59.55
2022-11-27T20:40:01.557Z,109.18
2022-11-27T20:42:33.807Z,67.70
2022-11-27T20:45:07.158Z,39.40
2022-11-27T20:47:38.959Z,73.25
2022-11-27T20:50:14.388Z,55.78
2022-11-27T20:52:50.182Z,104.28
2022-11-27T20:55:22.961Z,83.78
2022-11-27T20:57:55.181Z,49.40
2022-11-27T21:00:30.717Z,58.28
2022-11-27T21:03:08.046Z,40.88
2022-11-27T21:05:43.110Z,55.05
2022-11-27T21:08:14.790Z,53.60
2022-11-27T21:10:46.423Z,78.75
2022-11-27T21:13:18.126Z,43.40
2022-11-27T21:15:49.829Z,55.60
2022-11-27T21:18:22.865Z,43.83
2022-11-27T21:20:54.979Z,52.88
2022-11-27T21:23:26.893Z,44.42
2022-11-27T21:25:58.621Z,80.97
2022-11-27T21:28:31.657Z,50.45
2022-11-27T21:31:09.244Z,44.42
2022-11-27T21:33:40.896Z,59.10
2022-11-27T21:36:13.649Z,63.78
2022-11-27T21:38:45.356Z,58.47
2022-11-27T21:41:17.855Z,50.03
2022-11-27T21:43:58.741Z,68.30
2022-11-27T21:46:31.955Z,43.70
2022-11-27T21:49:03.600Z,74.90
2022-11-27T21:51:35.220Z,131.98
2022-11-27T21:54:13.336Z,93.95
2022-11-27T21:56:45.051Z,74.35
2022-11-27T21:59:18.771Z,48.22
2022-11-27T22:01:51.583Z,58.20
2022-11-27T22:04:29.035Z,35.83
2022-11-27T22:07:00.650Z,36.67
2022-11-27T22:09:33.437Z,39.60
2022-11-27T22:12:05.211Z,55.80
2022-11-27T22:14:37.551Z,48.92
2022-11-27T22:17:21.172Z,64.97
2022-11-27T22:19:52.868Z,48.53
2022-11-27T22:22:24.552Z,41.33
2022-11-27T22:24:56.827Z,46.60
2022-11-27T22:27:28.431Z,55.45
2022-11-27T22:30:00.101Z,39.08
2022-11-27T22:32:32.815Z,73.35
2022-11-27T22:35:07.543Z,37.10
2022-11-27T22:40:19.396Z,38.53
2022-11-27T22:42:51.325Z,38.03
2022-11-27T22:45:23.017Z,38.70
2022-11-27T22:47:54.755Z,60.80
2022-11-27T22:50:26.415Z,58.55
2022-11-27T22:53:00.680Z,48.78
2022-11-27T22:55:35.636Z,54.53
2022-11-27T22:58:10.003Z,52.00
2022-11-27T23:00:42.554Z,85.80
2022-11-27T23:03:14.411Z,149.52
2022-11-27T23:05:46.222Z,111.78
2022-11-27T23:08:19.010Z,111.63
2022-11-27T23:10:51.087Z,70.85
2022-11-27T23:13:22.684Z,98.18
2022-11-27T23:15:54.408Z,130.98
2022-11-27T23:18:26.026Z,81.43
2022-11-27T23:20:59.206Z,73.47
2022-11-27T23:23:30.811Z,61.72
2022-11-27T23:26:07.351Z,173.30
2022-11-27T23:28:39.108Z,69.72
2022-11-27T23:31:30.853Z,141.65
2022-11-27T23:34:07.503Z,162.82
2022-11-27T23:36:39.652Z,77.50
2022-11-27T23:39:13.415Z,115.20
2022-11-27T23:41:46.297Z,255.70
2022-11-27T23:44:17.993Z,118.50
2022-11-27T23:46:49.767Z,112.18
2022-11-27T23:49:21.417Z,99.15
2022-11-27T23:51:53.087Z,63.40
2022-11-27T23:54:24.740Z,174.38
2022-11-27T23:56:56.570Z,140.55
2022-11-27T23:59:28.251Z,121.35
